Time;durP1;ratioP1;P1;durP2;ratioP2;P2;SDS_P1;SDS_P2;PMS_P1;PMS_P2;Temp;Humidity;BMP_temperature;BMP_pressure;BME280_temperature;BME280_humidity;BME280_pressure;Samples;Min_cycle;Max_cycle;Signal;HPM_P1;HPM_P2
2021/03/16 00:00:06;;;;;;;0.20;0.20;;;;;;;2.00;76.02;91647.84;5111706;28;20034;-53
2021/03/16 00:02:32;;;;;;;0.63;0.63;;;;;;;1.98;76.30;91645.69;5111561;28;20062;-59
2021/03/16 00:04:57;;;;;;;0.20;0.20;;;;;;;2.13;76.07;91645.03;5111961;28;20063;-59
2021/03/16 00:07:23;;;;;;;0.20;0.20;;;;;;;2.11;75.86;91645.56;5111761;28;20025;-59
2021/03/16 00:09:48;;;;;;;0.43;0.43;;;;;;;2.06;75.28;91651.88;5111376;28;20085;-58
2021/03/16 00:12:13;;;;;;;0.20;0.20;;;;;;;2.05;75.76;91647.72;5111454;28;20031;-61
2021/03/16 00:14:39;;;;;;;0.20;0.20;;;;;;;2.17;75.76;91650.84;5110980;28;20023;-64
2021/03/16 00:17:05;;;;;;;1.20;1.10;;;;;;;2.14;75.71;91646.47;5111366;28;20404;-66
2021/03/16 00:19:30;;;;;;;0.43;0.43;;;;;;;2.01;75.70;91630.28;5111755;28;20411;-65
2021/03/16 00:21:56;;;;;;;0.20;0.20;;;;;;;2.09;75.17;91652.81;5110946;28;20032;-62
2021/03/16 00:24:21;;;;;;;0.20;0.20;;;;;;;1.93;75.65;91619.34;5110568;28;20023;-68
2021/03/16 00:26:46;;;;;;;0.30;0.30;;;;;;;1.98;75.94;91645.69;5109929;28;20048;-66
2021/03/16 00:29:12;;;;;;;0.20;0.20;;;;;;;1.89;75.72;91635.28;5110949;28;20110;-64
2021/03/16 00:31:38;;;;;;;0.20;0.20;;;;;;;1.93;75.98;91634.94;5111566;28;20020;-62
2021/03/16 00:34:04;;;;;;;0.20;0.20;;;;;;;2.06;75.95;91641.00;5111647;28;20403;-63
2021/03/16 00:36:29;;;;;;;0.28;0.28;;;;;;;1.99;75.64;91640.97;5111587;28;20027;-63
2021/03/16 00:38:54;;;;;;;0.20;0.20;;;;;;;1.96;75.56;91642.78;5111548;28;20023;-61
2021/03/16 00:41:20;;;;;;;0.20;0.20;;;;;;;2.01;75.44;91633.72;5112925;28;20027;-61
2021/03/16 00:43:46;;;;;;;0.20;0.20;;;;;;;1.93;75.82;91638.41;5115383;28;20385;-61
2021/03/16 00:46:12;;;;;;;0.20;0.20;;;;;;;1.94;76.37;91639.13;5114495;28;20035;-62
2021/03/16 00:48:37;;;;;;;0.20;0.20;;;;;;;1.93;76.27;91643.84;5113184;28;20028;-64
2021/03/16 00:51:03;;;;;;;0.20;0.20;;;;;;;2.03;75.57;91641.34;5113254;28;20027;-64
2021/03/16 00:53:28;;;;;;;0.85;0.85;;;;;;;2.11;75.06;91636.66;5113623;28;20015;-64
2021/03/16 00:55:54;;;;;;;0.20;0.20;;;;;;;2.00;75.32;91632.25;5113731;28;20027;-62
2021/03/16 00:58:27;;;;;;;0.40;0.40;;;;;;;2.05;76.05;91631.38;5114743;28;20039;-64
2021/03/16 01:00:52;;;;;;;0.20;0.20;;;;;;;2.12;74.97;91627.25;5115116;28;20026;-62
2021/03/16 01:03:18;;;;;;;0.30;0.30;;;;;;;2.05;75.53;91617.03;5114824;28;20031;-63
2021/03/16 01:05:43;;;;;;;0.20;0.20;;;;;;;2.03;75.91;91623.03;5114904;28;20034;-63
2021/03/16 01:08:08;;;;;;;0.20;0.20;;;;;;;2.03;76.13;91616.84;5114895;28;20489;-62
2021/03/16 01:10:34;;;;;;;0.22;0.22;;;;;;;1.95;75.63;91618.81;5114916;28;20027;-61
2021/03/16 01:12:59;;;;;;;0.65;0.65;;;;;;;1.97;75.91;91613.56;5114884;28;20034;-61
2021/03/16 01:15:25;;;;;;;0.20;0.20;;;;;;;1.91;75.84;91619.16;5114768;28;20023;-61
2021/03/16 01:17:50;;;;;;;0.30;0.30;;;;;;;1.85;76.33;91617.84;5114882;28;20028;-61
2021/03/16 01:20:20;;;;;;;0.20;0.20;;;;;;;1.80;76.82;91614.03;5114801;28;20153;-61
2021/03/16 01:22:47;;;;;;;0.20;0.20;;;;;;;1.85;77.34;91615.88;5114407;28;20024;-61
2021/03/16 01:25:13;;;;;;;0.20;0.20;;;;;;;1.80;76.65;91610.59;5114509;28;20074;-61
2021/03/16 01:27:39;;;;;;;0.20;0.20;;;;;;;1.82;77.39;91613.50;5114506;28;20035;-62
2021/03/16 01:30:05;;;;;;;0.20;0.20;;;;;;;1.88;76.83;91614.81;5114376;28;20032;-61
2021/03/16 01:32:31;;;;;;;0.40;0.40;;;;;;;1.88;77.50;91617.53;5114462;28;20102;-62
2021/03/16 01:34:56;;;;;;;0.40;0.40;;;;;;;1.75;76.95;91614.19;5114396;28;20115;-62
2021/03/16 01:37:22;;;;;;;0.25;0.25;;;;;;;1.79;77.35;91611.84;5114568;28;20023;-63
2021/03/16 01:39:48;;;;;;;0.20;0.20;;;;;;;1.74;77.40;91608.00;5114355;28;20062;-64
2021/03/16 01:42:14;;;;;;;0.20;0.20;;;;;;;1.64;77.97;91600.88;5114081;28;20035;-62
2021/03/16 01:44:43;;;;;;;0.20;0.20;;;;;;;1.72;77.93;91615.97;5114125;28;20055;-63
2021/03/16 01:47:10;;;;;;;0.20;0.20;;;;;;;1.76;78.21;91602.75;5114075;28;20115;-63
2021/03/16 01:49:37;;;;;;;0.20;0.20;;;;;;;1.70;78.28;91604.19;5114299;28;20661;-63
2021/03/16 01:52:03;;;;;;;0.20;0.20;;;;;;;1.49;79.08;91585.94;5114103;28;20479;-63
2021/03/16 01:54:28;;;;;;;0.35;0.35;;;;;;;1.69;79.04;91605.47;5113472;28;20059;-65
2021/03/16 01:56:54;;;;;;;0.30;0.30;;;;;;;1.76;79.47;91602.03;5113282;28;20103;-65
2021/03/16 01:59:20;;;;;;;0.47;0.47;;;;;;;1.78;79.05;91602.22;5095984;28;20027;-65
2021/03/16 02:01:46;;;;;;;0.30;0.30;;;;;;;1.72;79.55;91599.66;5095700;28;20031;-62
2021/03/16 02:04:12;;;;;;;1.33;0.95;;;;;;;1.67;79.80;91594.38;5112637;28;20034;-61
2021/03/16 02:06:44;;;;;;;0.20;0.20;;;;;;;1.67;79.85;91586.22;5113435;28;20107;-60
2021/03/16 02:09:15;;;;;;;0.70;0.70;;;;;;;1.61;79.79;91591.81;5094853;28;20161;-60
2021/03/16 02:11:57;;;;;;;0.77;0.77;;;;;;;1.63;79.99;91599.41;5095560;28;20047;-61
2021/03/16 02:14:34;;;;;;;0.20;0.20;;;;;;;1.60;80.19;91592.34;5113647;28;20040;-61
2021/03/16 02:17:06;;;;;;;0.20;0.20;;;;;;;1.57;80.60;91591.41;5095514;28;20460;-64
2021/03/16 02:19:49;;;;;;;0.20;0.20;;;;;;;1.62;80.20;91592.53;5090242;28;20089;-61
2021/03/16 02:22:16;;;;;;;0.20;0.20;;;;;;;1.57;80.31;91590.69;5093274;28;20040;-61
2021/03/16 02:25:00;;;;;;;0.35;0.35;;;;;;;1.49;80.18;91590.66;5092681;28;20028;-62
2021/03/16 02:27:28;;;;;;;0.20;0.20;;;;;;;1.50;80.43;91589.38;5113504;28;20114;-62
2021/03/16 02:30:05;;;;;;;0.20;0.20;;;;;;;1.60;80.32;91598.53;5113382;28;20020;-62
2021/03/16 02:32:31;;;;;;;0.20;0.20;;;;;;;1.47;80.66;91590.47;5095160;28;20095;-66
2021/03/16 02:35:04;;;;;;;0.20;0.20;;;;;;;1.52;80.71;91581.41;5095313;28;20050;-67
2021/03/16 02:37:33;;;;;;;0.20;0.20;;;;;;;1.41;80.21;91579.00;5113135;28;20055;-67
2021/03/16 02:39:59;;;;;;;0.20;0.20;;;;;;;1.57;79.85;91593.41;5113181;28;20024;-66
2021/03/16 02:42:25;;;;;;;0.20;0.20;;;;;;;1.58;80.32;91589.44;5094859;28;20023;-66
2021/03/16 02:44:51;;;;;;;0.20;0.20;;;;;;;1.56;79.67;91589.25;5113143;28;20047;-64
2021/03/16 02:47:20;;;;;;;0.20;0.20;;;;;;;1.44;80.27;91588.81;5094866;28;20569;-62
2021/03/16 02:49:46;;;;;;;0.30;0.30;;;;;;;1.37;80.78;91595.66;5094851;28;20031;-61
2021/03/16 02:52:14;;;;;;;0.20;0.20;;;;;;;1.47;80.56;91582.31;5094804;28;20103;-62
2021/03/16 02:54:40;;;;;;;0.20;0.20;;;;;;;1.46;80.05;91584.28;5112818;28;20030;-61
2021/03/16 02:57:06;;;;;;;0.20;0.20;;;;;;;1.43;80.61;91588.06;5094676;28;20110;-62
2021/03/16 02:59:32;;;;;;;0.20;0.20;;;;;;;1.30;80.94;91574.59;5094513;28;20034;-64
2021/03/16 03:01:58;;;;;;;0.20;0.20;;;;;;;1.14;81.43;91577.75;5094657;28;20028;-65
2021/03/16 03:04:24;;;;;;;0.20;0.20;;;;;;;1.28;81.27;91592.69;5093895;28;20031;-66
2021/03/16 03:06:50;;;;;;;0.52;0.52;;;;;;;1.30;81.27;91590.91;5112651;28;20019;-66
2021/03/16 03:09:16;;;;;;;0.20;0.20;;;;;;;1.31;81.21;91600.53;5094459;28;20480;-60
2021/03/16 03:11:41;;;;;;;0.40;0.40;;;;;;;1.18;80.81;91600.63;5112418;28;20030;-63
2021/03/16 03:14:08;;;;;;;0.20;0.20;;;;;;;1.22;81.57;91601.00;5112584;28;20070;-62
2021/03/16 03:16:34;;;;;;;0.20;0.20;;;;;;;1.26;81.38;91598.66;5112548;28;20405;-62
2021/03/16 03:19:00;;;;;;;0.20;0.20;;;;;;;0.91;81.37;91561.28;5112493;28;20054;-61
2021/03/16 03:21:48;;;;;;;0.28;0.28;;;;;;;1.20;81.66;91608.22;5112382;28;20019;-60
2021/03/16 03:24:20;;;;;;;0.20;0.20;;;;;;;1.23;81.72;91607.16;5112349;28;20393;-60
2021/03/16 03:27:06;;;;;;;0.30;0.30;;;;;;;1.29;81.56;91610.47;5090721;28;20047;-59
2021/03/16 03:29:31;;;;;;;0.20;0.20;;;;;;;1.22;81.68;91616.56;5091941;28;20032;-62
2021/03/16 03:31:57;;;;;;;0.20;0.20;;;;;;;1.26;81.42;91601.38;5091128;28;20012;-61
2021/03/16 03:34:23;;;;;;;0.20;0.20;;;;;;;1.26;82.14;91608.81;5073131;28;20074;-60
2021/03/16 03:36:52;;;;;;;0.20;0.20;;;;;;;1.34;81.69;91610.31;5091979;28;20095;-61
2021/03/16 03:39:20;;;;;;;0.20;0.20;;;;;;;1.27;81.53;91607.56;5091693;28;20108;-61
2021/03/16 03:41:45;;;;;;;0.30;0.30;;;;;;;1.23;81.79;91607.16;5090482;28;20062;-61
2021/03/16 03:44:12;;;;;;;0.20;0.20;;;;;;;1.21;81.84;91610.41;5089828;28;20066;-61
2021/03/16 03:46:38;;;;;;;0.35;0.35;;;;;;;1.10;82.58;91604.53;5091075;28;20032;-61
2021/03/16 03:49:04;;;;;;;0.20;0.20;;;;;;;1.14;82.66;91611.09;5090445;28;20501;-63
2021/03/16 03:51:32;;;;;;;0.20;0.20;;;;;;;1.22;82.34;91611.13;5091720;28;20092;-64
2021/03/16 03:53:59;;;;;;;0.30;0.30;;;;;;;1.22;82.75;91609.16;5090365;28;20667;-63
2021/03/16 03:56:29;;;;;;;0.20;0.20;;;;;;;1.23;82.04;91618.78;5090412;28;20024;-61
2021/03/16 03:58:58;;;;;;;0.20;0.20;;;;;;;1.03;82.25;91586.19;5091709;28;20024;-66
2021/03/16 04:01:24;;;;;;;0.20;0.20;;;;;;;1.21;82.79;91618.56;5091584;28;20110;-65
2021/03/16 04:03:49;;;;;;;0.93;0.93;;;;;;;1.20;82.19;91624.53;5090376;28;20482;-64
2021/03/16 04:06:15;;;;;;;0.30;0.30;;;;;;;1.22;82.11;91630.91;5091502;28;20016;-66
2021/03/16 04:08:41;;;;;;;0.20;0.20;;;;;;;1.19;82.35;91631.94;5090531;28;20024;-62
2021/03/16 04:11:07;;;;;;;0.20;0.20;;;;;;;1.16;81.97;91622.16;5090450;28;20405;-62
2021/03/16 04:13:32;;;;;;;0.40;0.40;;;;;;;1.24;82.31;91624.91;5091532;28;20016;-60
2021/03/16 04:16:00;;;;;;;0.20;0.20;;;;;;;1.23;81.75;91626.94;5091314;28;20400;-60
2021/03/16 04:18:26;;;;;;;0.20;0.20;;;;;;;1.20;82.20;91635.41;5095399;28;20492;-61
2021/03/16 04:20:51;;;;;;;0.20;0.20;;;;;;;1.06;82.48;91623.88;5094452;28;20031;-62
2021/03/16 04:23:17;;;;;;;0.22;0.22;;;;;;;1.09;82.61;91625.53;5094190;28;20028;-61
2021/03/16 04:25:43;;;;;;;0.20;0.20;;;;;;;1.08;82.41;91632.25;5093970;28;20467;-62
2021/03/16 04:28:08;;;;;;;0.30;0.30;;;;;;;1.10;82.57;91635.16;5095284;28;20455;-65
2021/03/16 04:30:33;;;;;;;0.20;0.20;;;;;;;1.06;82.45;91636.75;5095464;28;20047;-65
2021/03/16 04:33:00;;;;;;;0.20;0.20;;;;;;;1.07;82.69;91630.78;5095212;28;20539;-65
2021/03/16 04:35:25;;;;;;;0.20;0.20;;;;;;;1.09;83.03;91639.13;5095376;28;20020;-64
2021/03/16 04:37:50;;;;;;;0.20;0.20;;;;;;;1.12;82.54;91626.47;5095187;28;20409;-66
2021/03/16 04:40:16;;;;;;;0.20;0.20;;;;;;;0.87;82.22;91604.34;5095150;28;20047;-66
2021/03/16 04:42:41;;;;;;;0.73;0.73;;;;;;;1.02;82.71;91634.34;5093779;28;20024;-65
2021/03/16 04:45:07;;;;;;;0.20;0.20;;;;;;;1.10;82.80;91642.59;5095067;28;20020;-62
2021/03/16 04:47:33;;;;;;;0.30;0.30;;;;;;;1.08;82.87;91645.09;5095139;28;20447;-67
2021/03/16 04:49:58;;;;;;;0.20;0.20;;;;;;;1.06;83.17;91644.91;5094735;28;20053;-58
2021/03/16 04:52:24;;;;;;;0.20;0.20;;;;;;;1.07;82.95;91649.81;5094766;28;20106;-54
2021/03/16 04:54:49;;;;;;;0.20;0.20;;;;;;;0.95;83.12;91632.31;5094814;28;20024;-54
2021/03/16 04:57:15;;;;;;;0.20;0.20;;;;;;;1.06;82.95;91647.63;5095061;28;20016;-55
2021/03/16 04:59:40;;;;;;;0.20;0.20;;;;;;;1.08;83.40;91650.53;5094998;28;20016;-56
2021/03/16 05:02:06;;;;;;;0.20;0.20;;;;;;;1.01;83.35;91651.94;5094509;28;20024;-61
2021/03/16 05:04:31;;;;;;;0.32;0.32;;;;;;;1.05;83.21;91654.31;5094676;28;20020;-61
2021/03/16 05:06:57;;;;;;;0.20;0.20;;;;;;;1.03;83.06;91654.13;5094744;28;20028;-62
2021/03/16 05:09:22;;;;;;;0.20;0.20;;;;;;;1.06;83.50;91653.06;5094498;28;20024;-62
2021/03/16 05:11:47;;;;;;;0.30;0.30;;;;;;;1.09;82.90;91658.16;5094682;28;20020;-64
2021/03/16 05:14:13;;;;;;;0.20;0.20;;;;;;;0.98;82.56;91644.09;5094507;28;20016;-63
2021/03/16 05:16:38;;;;;;;0.30;0.30;;;;;;;1.10;83.10;91665.06;5094384;28;20032;-62
2021/03/16 05:19:04;;;;;;;0.20;0.20;;;;;;;1.17;82.66;91658.94;5094203;28;20020;-62
2021/03/16 05:21:30;;;;;;;0.20;0.20;;;;;;;1.13;82.68;91666.69;5094204;28;20028;-61
2021/03/16 05:23:55;;;;;;;0.20;0.20;;;;;;;1.12;82.69;91661.81;5078221;28;20029;-60
2021/03/16 05:26:22;;;;;;;0.30;0.30;;;;;;;1.04;82.47;91661.03;5087544;28;20059;-63
2021/03/16 05:28:47;;;;;;;0.88;0.88;;;;;;;1.09;83.00;91655.44;5093304;28;20024;-63
2021/03/16 05:31:12;;;;;;;0.20;0.20;;;;;;;1.12;81.93;91665.25;5094250;28;20027;-64
2021/03/16 05:33:38;;;;;;;0.40;0.40;;;;;;;1.14;82.33;91668.16;5094185;28;20485;-63
2021/03/16 05:36:04;;;;;;;0.20;0.20;;;;;;;1.11;81.67;91666.50;5093935;28;20055;-66
2021/03/16 05:38:29;;;;;;;0.20;0.20;;;;;;;1.10;82.66;91659.63;5094086;28;20051;-63
2021/03/16 05:40:55;;;;;;;0.30;0.30;;;;;;;1.08;82.38;91653.25;5094048;28;20099;-62
2021/03/16 05:43:20;;;;;;;0.25;0.25;;;;;;;1.15;82.25;91661.47;5075754;28;20020;-63
2021/03/16 05:45:46;;;;;;;1.00;1.00;;;;;;;1.18;82.21;91670.53;5093900;28;20027;-60
2021/03/16 05:48:12;;;;;;;0.20;0.20;;;;;;;1.15;82.27;91669.63;5093875;28;20032;-60
2021/03/16 05:50:38;;;;;;;0.20;0.20;;;;;;;1.19;81.73;91682.88;5075793;28;20024;-62
2021/03/16 05:53:04;;;;;;;0.20;0.20;;;;;;;1.13;82.12;91682.28;5075839;28;20100;-63
2021/03/16 05:55:30;;;;;;;0.20;0.20;;;;;;;1.15;81.62;91682.50;5093664;28;20032;-61
2021/03/16 05:57:55;;;;;;;0.32;0.32;;;;;;;1.13;82.09;91684.97;5093525;28;20053;-62
2021/03/16 06:00:21;;;;;;;0.20;0.20;;;;;;;1.15;82.25;91688.63;5093604;28;20052;-62
2021/03/16 06:02:47;;;;;;;0.20;0.20;;;;;;;1.25;82.22;91691.63;5093508;28;20032;-63
2021/03/16 06:05:13;;;;;;;0.20;0.20;;;;;;;1.19;81.80;91683.59;5093461;28;20024;-65
2021/03/16 06:07:38;;;;;;;0.55;0.25;;;;;;;1.31;81.28;91686.78;5093459;28;20047;-65
2021/03/16 06:10:04;;;;;;;0.20;0.20;;;;;;;1.36;81.04;91696.78;5093407;28;20085;-64
2021/03/16 06:12:34;;;;;;;1.08;0.40;;;;;;;1.41;81.45;91693.94;5093368;28;20035;-64
2021/03/16 06:15:29;;;;;;;0.20;0.20;;;;;;;1.34;80.95;91691.88;5093269;28;20070;-64
2021/03/16 06:17:54;;;;;;;0.20;0.20;;;;;;;1.45;81.30;91691.59;5071351;28;20030;-65
2021/03/16 06:20:26;;;;;;;0.30;0.30;;;;;;;1.41;80.86;91693.19;5093427;28;20023;-66
2021/03/16 06:23:13;;;;;;;0.68;0.68;;;;;;;1.43;81.17;91706.97;5093203;28;20024;-65
2021/03/16 06:25:41;;;;;;;0.20;0.20;;;;;;;1.45;81.18;91705.19;5093098;28;20048;-63
2021/03/16 06:28:11;;;;;;;0.20;0.20;;;;;;;1.40;81.48;91714.22;5093025;28;20024;-63
2021/03/16 06:30:38;;;;;;;0.20;0.20;;;;;;;1.47;81.09;91710.81;5092917;28;20027;-65
2021/03/16 06:33:04;;;;;;;0.90;0.77;;;;;;;1.44;81.21;91716.59;5092815;28;20012;-66
2021/03/16 06:35:30;;;;;;;0.20;0.20;;;;;;;1.45;80.66;91721.50;5093003;28;20024;-66
2021/03/16 06:38:00;;;;;;;0.20;0.20;;;;;;;1.45;81.03;91723.53;5092992;28;20020;-64
2021/03/16 06:40:33;;;;;;;0.20;0.20;;;;;;;1.56;80.91;91722.50;5092567;28;20398;-64
2021/03/16 06:43:17;;;;;;;0.30;0.30;;;;;;;1.52;81.32;91720.84;5092756;28;20485;-64
2021/03/16 06:45:43;;;;;;;0.50;0.50;;;;;;;1.59;80.81;91732.31;5071221;28;20117;-61
2021/03/16 06:48:22;;;;;;;0.20;0.20;;;;;;;1.58;81.03;91726.16;5074565;28;20504;-61
2021/03/16 06:50:49;;;;;;;0.20;0.20;;;;;;;1.58;80.74;91733.59;5092612;28;20024;-61
2021/03/16 06:53:20;;;;;;;0.40;0.40;;;;;;;1.62;80.44;91736.69;5090906;28;20031;-63
2021/03/16 06:55:51;;;;;;;0.35;0.35;;;;;;;1.67;80.47;91739.25;5091278;28;20052;-61
2021/03/16 06:58:20;;;;;;;0.57;0.57;;;;;;;1.57;80.83;91730.13;5091640;28;20020;-62
2021/03/16 07:00:46;;;;;;;0.20;0.20;;;;;;;1.73;80.50;91731.72;5091457;28;20051;-62
2021/03/16 07:03:16;;;;;;;0.20;0.20;;;;;;;1.65;80.23;91749.22;5091079;28;20078;-62
2021/03/16 07:05:42;;;;;;;0.55;0.55;;;;;;;1.70;80.24;91740.94;5091871;28;20023;-65
2021/03/16 07:08:08;;;;;;;0.35;0.35;;;;;;;1.84;79.93;91738.84;5093020;28;20043;-65
2021/03/16 07:10:35;;;;;;;0.20;0.20;;;;;;;1.93;78.89;91749.97;5073368;28;20520;-63
2021/03/16 07:13:01;;;;;;;0.20;0.20;;;;;;;1.89;79.00;91748.84;5089783;28;20077;-63
2021/03/16 07:15:29;;;;;;;0.30;0.30;;;;;;;1.95;79.15;91733.13;5091138;28;20039;-62
2021/03/16 07:17:57;;;;;;;0.20;0.20;;;;;;;2.15;79.04;91746.66;5091003;28;20424;-65
2021/03/16 07:20:23;;;;;;;0.25;0.25;;;;;;;2.07;78.59;91735.00;5090681;28;20093;-65
2021/03/16 07:22:52;;;;;;;0.70;0.70;;;;;;;1.96;78.98;91745.44;5072588;28;20031;-63
2021/03/16 07:25:18;;;;;;;;;;;;;;;2.16;78.93;91742.69;5073204;28;20471;-62
2021/03/16 07:27:43;;;;;;;0.20;0.20;;;;;;;2.16;77.94;91752.84;5072786;28;19912;-63
2021/03/16 07:30:10;;;;;;;0.50;0.50;;;;;;;2.17;77.61;91741.41;5090713;28;20027;-62
2021/03/16 07:32:35;;;;;;;0.20;0.20;;;;;;;2.24;77.71;91753.59;5090622;28;20462;-63
2021/03/16 07:35:01;;;;;;;0.20;0.20;;;;;;;2.35;77.96;91755.28;5072707;28;20030;-64
2021/03/16 07:37:28;;;;;;;0.30;0.30;;;;;;;2.35;76.43;91758.03;5090535;28;20035;-63
2021/03/16 07:39:55;;;;;;;0.28;0.28;;;;;;;2.37;76.75;91769.09;5072374;28;20054;-64
2021/03/16 07:42:20;;;;;;;0.93;0.90;;;;;;;2.17;77.36;91759.72;5090423;28;20157;-64
2021/03/16 07:44:46;;;;;;;0.55;0.55;;;;;;;2.18;77.65;91753.03;5090589;28;20488;-64
2021/03/16 07:47:11;;;;;;;0.75;0.75;;;;;;;2.11;77.70;91768.06;5090415;28;20071;-62
2021/03/16 07:49:39;;;;;;;0.73;0.73;;;;;;;2.18;77.95;91763.94;5072795;28;20114;-65
2021/03/16 07:52:18;;;;;;;0.20;0.20;;;;;;;2.20;77.79;91772.28;5089634;28;20020;-63
2021/03/16 07:54:50;;;;;;;0.35;0.35;;;;;;;2.13;78.03;91765.53;5090720;28;20413;-62
2021/03/16 07:57:35;;;;;;;0.30;0.30;;;;;;;2.13;78.24;91760.09;5090124;28;20560;-64
2021/03/16 08:00:05;;;;;;;0.60;0.60;;;;;;;2.08;78.50;91773.84;5090187;28;20040;-64
2021/03/16 08:02:32;;;;;;;0.30;0.30;;;;;;;2.07;78.83;91766.94;5090204;28;20516;-63
2021/03/16 08:04:58;;;;;;;0.65;0.65;;;;;;;2.29;79.03;91777.25;5090326;28;20032;-62
2021/03/16 08:07:25;;;;;;;0.35;0.35;;;;;;;2.29;77.81;91769.06;5090202;28;20028;-65
2021/03/16 08:09:52;;;;;;;0.30;0.30;;;;;;;2.39;77.54;91780.91;5072053;28;20032;-64
2021/03/16 08:12:24;;;;;;;0.20;0.20;;;;;;;2.47;77.50;91787.13;5090669;28;20050;-63
2021/03/16 08:14:50;;;;;;;0.75;0.75;;;;;;;2.46;76.45;91788.41;5089203;28;20115;-64
2021/03/16 08:17:30;;;;;;;0.45;0.45;;;;;;;2.44;76.10;91771.88;5090109;28;20119;-65
2021/03/16 08:19:55;;;;;;;0.57;0.40;;;;;;;2.28;77.36;91771.06;5090345;28;20061;-61
2021/03/16 08:22:22;;;;;;;0.20;0.20;;;;;;;2.64;76.45;91784.66;5090121;28;20028;-62
2021/03/16 08:24:51;;;;;;;0.20;0.20;;;;;;;2.67;75.92;91761.06;5089142;28;20064;-64
2021/03/16 08:27:17;;;;;;;0.30;0.30;;;;;;;2.77;76.13;91762.03;5089291;28;20036;-63
2021/03/16 08:29:44;;;;;;;0.52;0.52;;;;;;;2.73;74.99;91767.81;5089316;28;20040;-63
2021/03/16 08:32:17;;;;;;;1.40;1.30;;;;;;;2.83;75.70;91771.50;5089530;28;20420;-62
2021/03/16 08:34:43;;;;;;;0.77;0.60;;;;;;;2.95;74.52;91769.91;5089276;28;20080;-62
2021/03/16 08:37:39;;;;;;;0.35;0.35;;;;;;;3.39;73.48;91775.28;5089180;28;20028;-62
2021/03/16 08:40:08;;;;;;;0.60;0.60;;;;;;;3.31;73.04;91769.84;5068177;28;20036;-63
2021/03/16 08:42:33;;;;;;;0.40;0.40;;;;;;;3.39;72.99;91776.03;5088555;28;20085;-62
2021/03/16 08:44:58;;;;;;;0.63;0.63;;;;;;;3.07;73.53;91762.84;5089393;28;20071;-62
2021/03/16 08:47:25;;;;;;;0.98;0.70;;;;;;;3.03;74.89;91769.94;5089141;28;20401;-62
2021/03/16 08:49:53;;;;;;;1.13;0.85;;;;;;;3.14;74.34;91764.13;5089314;28;20811;-62
2021/03/16 08:52:23;;;;;;;0.55;0.55;;;;;;;3.03;73.80;91778.13;5088918;28;20020;-65
2021/03/16 08:54:50;;;;;;;0.63;0.63;;;;;;;2.86;74.12;91772.41;5089345;28;20047;-64
2021/03/16 08:57:20;;;;;;;0.30;0.30;;;;;;;2.85;74.34;91773.69;5108573;28;20074;-57
2021/03/16 08:59:46;;;;;;;;;;;;;;;2.87;74.79;91769.16;5109752;28;20609;-63
2021/03/16 09:02:21;;;;;;;0.57;0.57;;;;;;;2.92;74.65;91767.53;5110867;28;19919;-63
2021/03/16 09:04:47;;;;;;;0.95;0.95;;;;;;;2.86;74.06;91777.84;5113830;28;20023;-67
2021/03/16 09:07:20;;;;;;;1.05;1.05;;;;;;;2.71;74.47;91772.34;5113763;28;20028;-60
2021/03/16 09:09:45;;;;;;;7.88;2.47;;;;;;;2.79;75.24;91784.03;5114202;28;20028;-61
2021/03/16 09:12:13;;;;;;;0.95;0.95;;;;;;;2.89;75.18;91776.78;5113328;28;20050;-63
2021/03/16 09:14:38;;;;;;;0.30;0.30;;;;;;;2.71;74.82;91777.81;5112327;28;20165;-59
2021/03/16 09:17:05;;;;;;;1.45;1.35;;;;;;;2.81;74.96;91781.50;5113552;28;20102;-62
2021/03/16 09:19:33;;;;;;;0.63;0.63;;;;;;;2.79;74.41;91787.50;5113642;28;20027;-57
2021/03/16 09:22:01;;;;;;;0.30;0.30;;;;;;;2.71;74.43;91783.97;5112109;28;20073;-65
2021/03/16 09:24:28;;;;;;;0.50;0.50;;;;;;;2.94;74.95;91784.09;5104071;28;20035;-66
2021/03/16 09:27:04;;;;;;;0.85;0.85;;;;;;;3.04;73.86;91785.03;5109826;28;20452;-65
2021/03/16 09:29:35;;;;;;;1.48;1.05;;;;;;;3.10;73.98;91795.78;5109491;28;20024;-62
2021/03/16 09:32:06;;;;;;;1.20;1.08;;;;;;;3.13;73.52;91792.69;5110627;28;20488;-64
2021/03/16 09:34:34;;;;;;;0.30;0.30;;;;;;;3.34;72.54;91787.09;5111167;28;20495;-63
2021/03/16 09:37:08;;;;;;;0.90;0.90;;;;;;;3.05;72.73;91800.13;5112598;28;20431;-60
2021/03/16 09:39:34;;;;;;;0.60;0.60;;;;;;;2.89;73.63;91799.34;5112293;28;20412;-64
2021/03/16 09:42:02;;;;;;;0.65;0.65;;;;;;;2.91;73.99;91802.25;5112749;28;20027;-66
2021/03/16 09:44:32;;;;;;;0.40;0.40;;;;;;;2.82;73.47;91804.75;5112664;28;20508;-64
2021/03/16 09:46:57;;;;;;;0.30;0.30;;;;;;;2.95;74.09;91808.06;5111556;28;20038;-59
2021/03/16 09:49:30;;;;;;;0.63;0.63;;;;;;;2.93;73.50;91820.78;5108773;28;20020;-66
2021/03/16 09:52:01;;;;;;;0.50;0.50;;;;;;;3.02;73.08;91814.81;5107071;28;20105;-61
2021/03/16 09:54:27;;;;;;;0.20;0.20;;;;;;;2.98;72.88;91817.91;5112561;28;20023;-63
2021/03/16 09:56:52;;;;;;;0.30;0.30;;;;;;;3.25;72.97;91799.25;5112432;28;20119;-62
2021/03/16 09:59:18;;;;;;;0.47;0.30;;;;;;;3.35;71.15;91821.28;5112406;28;20028;-64
2021/03/16 10:01:45;;;;;;;0.73;0.73;;;;;;;3.44;72.26;91815.31;5112236;28;20518;-62
2021/03/16 10:04:13;;;;;;;0.60;0.60;;;;;;;3.69;71.32;91827.19;5111931;28;20118;-68
2021/03/16 10:06:43;;;;;;;1.95;1.85;;;;;;;3.55;71.70;91828.63;5112168;28;20482;-62
2021/03/16 10:09:22;;;;;;;0.88;0.63;;;;;;;3.64;71.70;91825.34;5112295;28;20472;-61
2021/03/16 10:11:49;;;;;;;1.33;1.33;;;;;;;3.66;70.68;91831.72;5111904;28;20023;-61
2021/03/16 10:14:28;;;;;;;1.13;1.13;;;;;;;3.64;70.76;91836.25;5092181;28;20035;-61
2021/03/16 10:16:54;;;;;;;1.42;1.33;;;;;;;3.64;70.76;91847.19;5111959;28;20023;-67
2021/03/16 10:19:21;;;;;;;0.43;0.43;;;;;;;3.43;71.28;91838.41;5110952;28;20047;-64
2021/03/16 10:21:47;;;;;;;0.40;0.40;;;;;;;3.51;71.75;91839.19;5111687;28;20035;-61
2021/03/16 10:24:12;;;;;;;0.80;0.80;;;;;;;3.47;70.99;91853.16;5111775;28;20035;-61
2021/03/16 10:26:38;;;;;;;0.30;0.30;;;;;;;3.14;72.11;91847.97;5111841;28;20409;-63
2021/03/16 10:29:11;;;;;;;0.75;0.75;;;;;;;3.25;72.59;91839.47;5111431;28;20042;-64
2021/03/16 10:31:36;;;;;;;0.85;0.85;;;;;;;3.28;71.86;91844.56;5111670;28;20101;-64
2021/03/16 10:34:02;;;;;;;0.93;0.73;;;;;;;3.35;71.69;91837.66;5111530;28;20043;-64
2021/03/16 10:36:34;;;;;;;1.65;1.05;;;;;;;3.40;71.56;91837.47;5111411;28;20031;-64
2021/03/16 10:39:03;;;;;;;0.40;0.40;;;;;;;3.41;70.90;91846.41;5111550;28;20073;-63
2021/03/16 10:41:29;;;;;;;0.30;0.30;;;;;;;3.08;71.09;91851.56;5111318;28;20114;-63
2021/03/16 10:43:54;;;;;;;0.88;0.82;;;;;;;2.93;72.54;91842.59;5111832;28;20127;-61
2021/03/16 10:46:20;;;;;;;1.27;1.17;;;;;;;2.70;72.61;91858.84;5111478;28;20745;-62
2021/03/16 10:48:45;;;;;;;0.88;0.60;;;;;;;2.74;73.42;91859.22;5111277;28;20060;-60
2021/03/16 10:51:11;;;;;;;0.93;0.90;;;;;;;2.98;72.90;91856.06;5111421;28;20538;-60
2021/03/16 10:53:36;;;;;;;3.50;0.70;;;;;;;2.82;73.11;91857.25;5110832;28;20512;-65
2021/03/16 10:56:05;;;;;;;0.30;0.30;;;;;;;2.76;72.72;91861.41;5109340;28;20032;-64
2021/03/16 10:58:31;;;;;;;;;;;;;;;2.63;74.38;91856.78;5111223;28;20114;-57
2021/03/16 11:00:57;;;;;;;0.77;0.75;;;;;;;2.61;74.01;91839.50;5111128;28;20026;-61
2021/03/16 11:03:22;;;;;;;0.50;0.50;;;;;;;2.54;72.85;91859.25;5110706;28;20032;-64
2021/03/16 11:05:48;;;;;;;0.75;0.75;;;;;;;2.55;74.38;91856.03;5110893;28;20051;-63
2021/03/16 11:08:13;;;;;;;1.83;1.73;;;;;;;2.81;73.86;91853.09;5092746;28;20500;-64
2021/03/16 11:10:39;;;;;;;0.43;0.43;;;;;;;2.79;74.48;91860.34;5110723;28;20035;-62
2021/03/16 11:13:04;;;;;;;0.47;0.47;;;;;;;2.70;73.75;91852.66;5109667;28;20118;-64
2021/03/16 11:15:30;;;;;;;0.65;0.65;;;;;;;2.77;74.26;91865.59;5109439;28;20051;-63
2021/03/16 11:17:55;;;;;;;1.15;0.68;;;;;;;2.73;74.12;91865.22;5110847;28;20484;-63
2021/03/16 11:20:21;;;;;;;0.68;0.68;;;;;;;2.79;74.22;91858.34;5110797;28;20027;-65
2021/03/16 11:22:46;;;;;;;0.45;0.45;;;;;;;2.85;74.44;91867.09;5110781;28;20026;-66
2021/03/16 11:25:12;;;;;;;0.35;0.35;;;;;;;3.06;73.96;91867.72;5109845;28;20508;-62
2021/03/16 11:27:38;;;;;;;0.80;0.80;;;;;;;3.00;73.55;91852.81;5110647;28;20027;-62
2021/03/16 11:30:06;;;;;;;0.90;0.85;;;;;;;2.87;73.71;91866.53;5110658;28;20110;-62
2021/03/16 11:32:31;;;;;;;0.65;0.65;;;;;;;3.12;74.07;91855.94;5110438;28;20030;-62
2021/03/16 11:34:57;;;;;;;0.52;0.52;;;;;;;3.15;72.88;91852.13;5110452;28;20043;-65
2021/03/16 11:37:22;;;;;;;1.17;0.95;;;;;;;3.29;72.85;91859.63;5110998;28;20028;-64
2021/03/16 11:39:48;;;;;;;0.52;0.52;;;;;;;3.38;72.58;91861.13;5110758;28;20085;-62
2021/03/16 11:42:13;;;;;;;0.30;0.30;;;;;;;3.31;71.83;91859.84;5110319;28;20035;-62